sensor_id;sensor_type;location;lat;lon;timestamp;P1;durP1;ratioP1;P2;durP2;ratioP2
71610;SDS011;59459;51.172;6.682;2023-01-24T00:00:41;19.33;;;8.73;;
71610;SDS011;59459;51.172;6.682;2023-01-24T00:03:07;21.10;;;8.83;;
71610;SDS011;59459;51.172;6.682;2023-01-24T00:05:37;20.17;;;9.10;;
71610;SDS011;59459;51.172;6.682;2023-01-24T00:08:02;20.50;;;9.00;;
71610;SDS011;59459;51.172;6.682;2023-01-24T00:10:28;24.40;;;10.27;;
71610;SDS011;59459;51.172;6.682;2023-01-24T00:12:54;20.42;;;9.18;;
71610;SDS011;59459;51.172;6.682;2023-01-24T00:15:19;23.77;;;10.97;;
71610;SDS011;59459;51.172;6.682;2023-01-24T00:17:44;25.50;;;9.53;;
71610;SDS011;59459;51.172;6.682;2023-01-24T00:20:09;20.30;;;9.07;;
71610;SDS011;59459;51.172;6.682;2023-01-24T00:22:35;21.00;;;9.37;;
71610;SDS011;59459;51.172;6.682;2023-01-24T00:25:00;22.00;;;9.60;;
71610;SDS011;59459;51.172;6.682;2023-01-24T00:27:25;20.40;;;9.03;;
71610;SDS011;59459;51.172;6.682;2023-01-24T00:29:50;22.10;;;10.33;;
71610;SDS011;59459;51.172;6.682;2023-01-24T00:32:16;22.77;;;10.33;;
71610;SDS011;59459;51.172;6.682;2023-01-24T00:34:41;21.23;;;8.87;;
71610;SDS011;59459;51.172;6.682;2023-01-24T00:37:06;20.37;;;9.73;;
71610;SDS011;59459;51.172;6.682;2023-01-24T00:39:31;20.60;;;9.07;;
71610;SDS011;59459;51.172;6.682;2023-01-24T00:41:56;19.63;;;9.00;;
71610;SDS011;59459;51.172;6.682;2023-01-24T00:44:22;21.10;;;8.70;;
71610;SDS011;59459;51.172;6.682;2023-01-24T00:46:47;20.13;;;9.23;;
71610;SDS011;59459;51.172;6.682;2023-01-24T00:49:15;21.70;;;9.20;;
71610;SDS011;59459;51.172;6.682;2023-01-24T00:51:40;22.40;;;10.17;;
71610;SDS011;59459;51.172;6.682;2023-01-24T00:54:05;19.33;;;8.80;;
71610;SDS011;59459;51.172;6.682;2023-01-24T00:56:31;17.07;;;8.20;;
71610;SDS011;59459;51.172;6.682;2023-01-24T00:58:56;20.83;;;9.10;;
71610;SDS011;59459;51.172;6.682;2023-01-24T01:01:21;23.27;;;8.67;;
71610;SDS011;59459;51.172;6.682;2023-01-24T01:03:46;18.93;;;8.40;;
71610;SDS011;59459;51.172;6.682;2023-01-24T01:06:13;20.53;;;9.30;;
71610;SDS011;59459;51.172;6.682;2023-01-24T01:08:39;22.10;;;9.07;;
71610;SDS011;59459;51.172;6.682;2023-01-24T01:11:04;22.20;;;9.20;;
71610;SDS011;59459;51.172;6.682;2023-01-24T01:13:30;20.80;;;9.15;;
71610;SDS011;59459;51.172;6.682;2023-01-24T01:16:02;22.33;;;9.50;;
71610;SDS011;59459;51.172;6.682;2023-01-24T01:18:28;21.10;;;9.82;;
71610;SDS011;59459;51.172;6.682;2023-01-24T01:20:53;21.30;;;8.50;;
71610;SDS011;59459;51.172;6.682;2023-01-24T01:23:18;19.87;;;9.60;;
71610;SDS011;59459;51.172;6.682;2023-01-24T01:25:43;22.03;;;8.77;;
71610;SDS011;59459;51.172;6.682;2023-01-24T01:28:09;19.80;;;8.43;;
71610;SDS011;59459;51.172;6.682;2023-01-24T01:30:34;17.93;;;7.90;;
71610;SDS011;59459;51.172;6.682;2023-01-24T01:32:59;21.20;;;8.80;;
71610;SDS011;59459;51.172;6.682;2023-01-24T01:35:24;19.90;;;8.60;;
71610;SDS011;59459;51.172;6.682;2023-01-24T01:37:49;18.13;;;9.17;;
71610;SDS011;59459;51.172;6.682;2023-01-24T01:40:16;18.13;;;8.10;;
71610;SDS011;59459;51.172;6.682;2023-01-24T01:42:59;20.95;;;8.40;;
71610;SDS011;59459;51.172;6.682;2023-01-24T01:47:59;19.85;;;8.18;;
71610;SDS011;59459;51.172;6.682;2023-01-24T01:50:36;22.10;;;8.23;;
71610;SDS011;59459;51.172;6.682;2023-01-24T01:53:02;19.05;;;7.65;;
71610;SDS011;59459;51.172;6.682;2023-01-24T01:55:28;19.83;;;8.23;;
71610;SDS011;59459;51.172;6.682;2023-01-24T01:57:55;19.13;;;8.02;;
71610;SDS011;59459;51.172;6.682;2023-01-24T02:00:21;21.53;;;8.40;;
71610;SDS011;59459;51.172;6.682;2023-01-24T02:02:49;19.20;;;8.60;;
71610;SDS011;59459;51.172;6.682;2023-01-24T02:05:17;21.15;;;8.70;;
71610;SDS011;59459;51.172;6.682;2023-01-24T02:07:44;26.27;;;9.48;;
71610;SDS011;59459;51.172;6.682;2023-01-24T02:10:11;17.42;;;8.10;;
71610;SDS011;59459;51.172;6.682;2023-01-24T02:12:41;19.90;;;7.33;;
71610;SDS011;59459;51.172;6.682;2023-01-24T02:15:09;17.98;;;7.55;;
71610;SDS011;59459;51.172;6.682;2023-01-24T02:17:53;20.45;;;8.25;;
71610;SDS011;59459;51.172;6.682;2023-01-24T02:27:53;20.73;;;7.97;;
71610;SDS011;59459;51.172;6.682;2023-01-24T02:30:19;19.27;;;8.30;;
71610;SDS011;59459;51.172;6.682;2023-01-24T02:32:45;20.20;;;7.53;;
71610;SDS011;59459;51.172;6.682;2023-01-24T02:35:27;18.97;;;6.93;;
71610;SDS011;59459;51.172;6.682;2023-01-24T02:37:52;20.83;;;7.75;;
71610;SDS011;59459;51.172;6.682;2023-01-24T02:40:18;17.20;;;7.20;;
71610;SDS011;59459;51.172;6.682;2023-01-24T02:42:43;18.67;;;7.07;;
71610;SDS011;59459;51.172;6.682;2023-01-24T02:45:23;16.60;;;6.00;;
71610;SDS011;59459;51.172;6.682;2023-01-24T02:47:49;16.05;;;6.38;;
71610;SDS011;59459;51.172;6.682;2023-01-24T02:50:18;17.50;;;6.63;;
71610;SDS011;59459;51.172;6.682;2023-01-24T02:52:45;15.60;;;6.43;;
71610;SDS011;59459;51.172;6.682;2023-01-24T02:55:29;14.73;;;6.63;;
71610;SDS011;59459;51.172;6.682;2023-01-24T02:57:55;16.95;;;6.55;;
71610;SDS011;59459;51.172;6.682;2023-01-24T03:00:36;14.27;;;6.53;;
71610;SDS011;59459;51.172;6.682;2023-01-24T03:03:02;15.10;;;6.13;;
71610;SDS011;59459;51.172;6.682;2023-01-24T03:05:28;15.93;;;6.72;;
71610;SDS011;59459;51.172;6.682;2023-01-24T03:08:04;16.63;;;7.05;;
71610;SDS011;59459;51.172;6.682;2023-01-24T03:10:29;16.63;;;6.67;;
71610;SDS011;59459;51.172;6.682;2023-01-24T03:12:54;15.03;;;6.67;;
71610;SDS011;59459;51.172;6.682;2023-01-24T03:15:38;17.37;;;6.37;;
71610;SDS011;59459;51.172;6.682;2023-01-24T03:18:22;16.50;;;6.38;;
71610;SDS011;59459;51.172;6.682;2023-01-24T03:21:06;15.70;;;6.78;;
71610;SDS011;59459;51.172;6.682;2023-01-24T03:23:50;13.32;;;5.82;;
71610;SDS011;59459;51.172;6.682;2023-01-24T03:26:34;12.75;;;5.13;;
71610;SDS011;59459;51.172;6.682;2023-01-24T03:29:18;14.10;;;5.50;;
71610;SDS011;59459;51.172;6.682;2023-01-24T03:32:01;11.68;;;4.75;;
71610;SDS011;59459;51.172;6.682;2023-01-24T03:34:45;12.57;;;5.07;;
71610;SDS011;59459;51.172;6.682;2023-01-24T03:37:14;13.48;;;5.93;;
71610;SDS011;59459;51.172;6.682;2023-01-24T03:39:39;14.82;;;5.45;;
71610;SDS011;59459;51.172;6.682;2023-01-24T03:42:24;15.10;;;5.57;;
71610;SDS011;59459;51.172;6.682;2023-01-24T03:44:49;12.70;;;5.75;;
71610;SDS011;59459;51.172;6.682;2023-01-24T03:47:14;12.50;;;5.07;;
71610;SDS011;59459;51.172;6.682;2023-01-24T03:49:39;12.13;;;4.70;;
71610;SDS011;59459;51.172;6.682;2023-01-24T03:52:23;13.07;;;5.75;;
71610;SDS011;59459;51.172;6.682;2023-01-24T03:54:54;12.50;;;5.53;;
71610;SDS011;59459;51.172;6.682;2023-01-24T03:57:20;15.13;;;5.63;;
71610;SDS011;59459;51.172;6.682;2023-01-24T03:59:45;13.48;;;5.25;;
71610;SDS011;59459;51.172;6.682;2023-01-24T04:02:10;15.37;;;5.77;;
71610;SDS011;59459;51.172;6.682;2023-01-24T04:04:36;13.73;;;5.20;;
71610;SDS011;59459;51.172;6.682;2023-01-24T04:07:19;13.20;;;5.23;;
71610;SDS011;59459;51.172;6.682;2023-01-24T04:09:45;12.90;;;6.07;;
71610;SDS011;59459;51.172;6.682;2023-01-24T04:12:10;13.00;;;4.90;;
71610;SDS011;59459;51.172;6.682;2023-01-24T04:14:35;13.23;;;5.37;;
71610;SDS011;59459;51.172;6.682;2023-01-24T04:17:00;14.80;;;6.83;;
71610;SDS011;59459;51.172;6.682;2023-01-24T04:19:25;14.57;;;5.47;;
71610;SDS011;59459;51.172;6.682;2023-01-24T04:21:51;13.50;;;5.73;;
71610;SDS011;59459;51.172;6.682;2023-01-24T04:24:16;12.57;;;5.47;;
71610;SDS011;59459;51.172;6.682;2023-01-24T04:26:41;13.77;;;5.73;;
71610;SDS011;59459;51.172;6.682;2023-01-24T04:29:06;14.53;;;5.77;;
71610;SDS011;59459;51.172;6.682;2023-01-24T04:31:31;11.07;;;5.43;;
71610;SDS011;59459;51.172;6.682;2023-01-24T04:33:57;12.20;;;4.63;;
71610;SDS011;59459;51.172;6.682;2023-01-24T04:36:22;12.67;;;5.13;;
71610;SDS011;59459;51.172;6.682;2023-01-24T04:38:47;11.90;;;5.20;;
71610;SDS011;59459;51.172;6.682;2023-01-24T04:41:12;13.07;;;4.93;;
71610;SDS011;59459;51.172;6.682;2023-01-24T04:43:39;11.00;;;4.53;;
71610;SDS011;59459;51.172;6.682;2023-01-24T04:46:04;9.40;;;3.70;;
71610;SDS011;59459;51.172;6.682;2023-01-24T04:48:29;11.23;;;4.60;;
71610;SDS011;59459;51.172;6.682;2023-01-24T04:50:58;10.23;;;4.17;;
71610;SDS011;59459;51.172;6.682;2023-01-24T04:53:24;11.63;;;4.68;;
71610;SDS011;59459;51.172;6.682;2023-01-24T04:55:49;15.13;;;6.10;;
71610;SDS011;59459;51.172;6.682;2023-01-24T04:58:14;14.53;;;5.23;;
71610;SDS011;59459;51.172;6.682;2023-01-24T05:00:39;14.40;;;5.40;;
71610;SDS011;59459;51.172;6.682;2023-01-24T05:03:05;12.03;;;5.87;;
71610;SDS011;59459;51.172;6.682;2023-01-24T05:05:30;12.98;;;4.95;;
71610;SDS011;59459;51.172;6.682;2023-01-24T05:07:55;12.70;;;5.23;;
71610;SDS011;59459;51.172;6.682;2023-01-24T05:10:21;12.50;;;4.97;;
71610;SDS011;59459;51.172;6.682;2023-01-24T05:12:48;11.30;;;4.57;;
71610;SDS011;59459;51.172;6.682;2023-01-24T05:15:13;13.00;;;5.30;;
71610;SDS011;59459;51.172;6.682;2023-01-24T05:17:38;13.07;;;5.43;;
71610;SDS011;59459;51.172;6.682;2023-01-24T05:20:03;13.80;;;5.93;;
71610;SDS011;59459;51.172;6.682;2023-01-24T05:22:29;14.60;;;6.10;;
71610;SDS011;59459;51.172;6.682;2023-01-24T05:24:54;13.57;;;5.87;;
71610;SDS011;59459;51.172;6.682;2023-01-24T05:27:19;11.77;;;5.00;;
71610;SDS011;59459;51.172;6.682;2023-01-24T05:29:44;13.30;;;5.80;;
71610;SDS011;59459;51.172;6.682;2023-01-24T05:32:10;11.90;;;4.73;;
71610;SDS011;59459;51.172;6.682;2023-01-24T05:34:35;11.67;;;5.07;;
71610;SDS011;59459;51.172;6.682;2023-01-24T05:37:00;13.27;;;5.50;;
71610;SDS011;59459;51.172;6.682;2023-01-24T05:39:25;13.83;;;5.37;;
71610;SDS011;59459;51.172;6.682;2023-01-24T05:41:50;12.77;;;5.10;;
71610;SDS011;59459;51.172;6.682;2023-01-24T05:44:16;12.67;;;5.00;;
71610;SDS011;59459;51.172;6.682;2023-01-24T05:46:41;12.50;;;5.00;;
71610;SDS011;59459;51.172;6.682;2023-01-24T05:49:08;10.70;;;5.00;;
71610;SDS011;59459;51.172;6.682;2023-01-24T05:51:33;13.50;;;5.97;;
71610;SDS011;59459;51.172;6.682;2023-01-24T05:53:58;13.97;;;5.40;;
71610;SDS011;59459;51.172;6.682;2023-01-24T05:56:24;11.80;;;5.10;;
71610;SDS011;59459;51.172;6.682;2023-01-24T05:58:49;14.80;;;5.80;;
71610;SDS011;59459;51.172;6.682;2023-01-24T06:01:16;14.23;;;5.47;;
71610;SDS011;59459;51.172;6.682;2023-01-24T06:03:41;13.10;;;5.35;;
71610;SDS011;59459;51.172;6.682;2023-01-24T06:06:08;14.57;;;5.60;;
71610;SDS011;59459;51.172;6.682;2023-01-24T06:08:33;12.95;;;5.68;;
71610;SDS011;59459;51.172;6.682;2023-01-24T06:11:02;13.33;;;5.73;;
71610;SDS011;59459;51.172;6.682;2023-01-24T06:13:28;14.10;;;5.93;;
71610;SDS011;59459;51.172;6.682;2023-01-24T06:15:59;13.68;;;5.43;;
71610;SDS011;59459;51.172;6.682;2023-01-24T06:18:24;12.68;;;5.40;;
71610;SDS011;59459;51.172;6.682;2023-01-24T06:20:50;14.67;;;5.37;;
71610;SDS011;59459;51.172;6.682;2023-01-24T06:23:19;15.70;;;5.83;;
71610;SDS011;59459;51.172;6.682;2023-01-24T06:25:47;12.60;;;5.68;;
71610;SDS011;59459;51.172;6.682;2023-01-24T06:28:13;12.73;;;5.30;;
71610;SDS011;59459;51.172;6.682;2023-01-24T06:30:38;13.57;;;5.13;;
71610;SDS011;59459;51.172;6.682;2023-01-24T06:33:15;13.88;;;6.03;;
71610;SDS011;59459;51.172;6.682;2023-01-24T06:38:26;13.27;;;6.83;;
71610;SDS011;59459;51.172;6.682;2023-01-24T06:40:52;13.17;;;6.13;;
71610;SDS011;59459;51.172;6.682;2023-01-24T06:43:20;14.40;;;6.20;;
71610;SDS011;59459;51.172;6.682;2023-01-24T06:45:45;15.93;;;6.80;;
71610;SDS011;59459;51.172;6.682;2023-01-24T06:48:10;15.30;;;6.00;;
71610;SDS011;59459;51.172;6.682;2023-01-24T06:50:36;16.03;;;6.70;;
71610;SDS011;59459;51.172;6.682;2023-01-24T06:53:01;15.87;;;6.70;;
71610;SDS011;59459;51.172;6.682;2023-01-24T06:55:26;16.20;;;6.80;;
71610;SDS011;59459;51.172;6.682;2023-01-24T06:57:58;15.37;;;6.20;;
71610;SDS011;59459;51.172;6.682;2023-01-24T07:00:24;17.75;;;6.75;;
71610;SDS011;59459;51.172;6.682;2023-01-24T07:03:05;15.73;;;6.40;;
71610;SDS011;59459;51.172;6.682;2023-01-24T07:05:34;18.88;;;7.38;;
71610;SDS011;59459;51.172;6.682;2023-01-24T07:08:00;16.90;;;7.00;;
71610;SDS011;59459;51.172;6.682;2023-01-24T07:10:25;16.83;;;7.35;;
71610;SDS011;59459;51.172;6.682;2023-01-24T07:12:50;18.13;;;7.80;;
71610;SDS011;59459;51.172;6.682;2023-01-24T07:15:15;15.13;;;6.57;;
71610;SDS011;59459;51.172;6.682;2023-01-24T07:17:41;19.60;;;6.40;;
71610;SDS011;59459;51.172;6.682;2023-01-24T07:20:06;15.27;;;6.03;;
71610;SDS011;59459;51.172;6.682;2023-01-24T07:22:32;16.20;;;6.20;;
71610;SDS011;59459;51.172;6.682;2023-01-24T07:24:57;16.90;;;6.63;;
71610;SDS011;59459;51.172;6.682;2023-01-24T07:27:23;19.03;;;7.27;;
71610;SDS011;59459;51.172;6.682;2023-01-24T07:29:48;18.47;;;7.40;;
71610;SDS011;59459;51.172;6.682;2023-01-24T07:32:13;16.10;;;6.60;;
71610;SDS011;59459;51.172;6.682;2023-01-24T07:34:39;16.53;;;6.77;;
71610;SDS011;59459;51.172;6.682;2023-01-24T07:37:05;13.97;;;5.77;;
71610;SDS011;59459;51.172;6.682;2023-01-24T07:39:31;14.17;;;6.40;;
71610;SDS011;59459;51.172;6.682;2023-01-24T07:41:56;17.17;;;6.70;;
71610;SDS011;59459;51.172;6.682;2023-01-24T07:44:21;17.93;;;6.87;;
71610;SDS011;59459;51.172;6.682;2023-01-24T07:46:47;17.87;;;7.67;;
71610;SDS011;59459;51.172;6.682;2023-01-24T07:49:12;15.33;;;6.07;;
71610;SDS011;59459;51.172;6.682;2023-01-24T07:51:37;16.93;;;6.43;;
71610;SDS011;59459;51.172;6.682;2023-01-24T07:54:02;16.00;;;6.83;;
71610;SDS011;59459;51.172;6.682;2023-01-24T07:56:28;17.40;;;7.30;;
71610;SDS011;59459;51.172;6.682;2023-01-24T07:58:53;16.67;;;6.90;;
71610;SDS011;59459;51.172;6.682;2023-01-24T08:01:19;16.17;;;5.97;;
71610;SDS011;59459;51.172;6.682;2023-01-24T08:03:44;14.82;;;6.32;;
71610;SDS011;59459;51.172;6.682;2023-01-24T08:06:10;15.27;;;7.17;;
71610;SDS011;59459;51.172;6.682;2023-01-24T08:08:35;16.80;;;6.30;;
71610;SDS011;59459;51.172;6.682;2023-01-24T08:11:01;14.60;;;6.30;;
71610;SDS011;59459;51.172;6.682;2023-01-24T08:13:26;17.27;;;6.37;;
71610;SDS011;59459;51.172;6.682;2023-01-24T08:15:51;14.77;;;6.77;;
71610;SDS011;59459;51.172;6.682;2023-01-24T08:18:16;15.13;;;6.60;;
71610;SDS011;59459;51.172;6.682;2023-01-24T08:20:42;14.60;;;6.10;;
71610;SDS011;59459;51.172;6.682;2023-01-24T08:23:07;17.07;;;6.90;;
71610;SDS011;59459;51.172;6.682;2023-01-24T08:25:33;17.57;;;6.57;;
71610;SDS011;59459;51.172;6.682;2023-01-24T08:27:59;16.05;;;6.68;;
71610;SDS011;59459;51.172;6.682;2023-01-24T08:30:24;15.53;;;6.80;;
71610;SDS011;59459;51.172;6.682;2023-01-24T08:32:57;15.70;;;6.73;;
71610;SDS011;59459;51.172;6.682;2023-01-24T08:35:22;15.38;;;6.00;;
71610;SDS011;59459;51.172;6.682;2023-01-24T08:37:48;18.30;;;7.27;;
71610;SDS011;59459;51.172;6.682;2023-01-24T08:40:13;16.70;;;6.67;;
71610;SDS011;59459;51.172;6.682;2023-01-24T08:42:38;15.73;;;7.03;;
71610;SDS011;59459;51.172;6.682;2023-01-24T08:45:03;17.63;;;7.13;;
71610;SDS011;59459;51.172;6.682;2023-01-24T08:47:29;18.47;;;8.17;;
71610;SDS011;59459;51.172;6.682;2023-01-24T08:49:54;19.07;;;6.80;;
71610;SDS011;59459;51.172;6.682;2023-01-24T08:52:19;15.60;;;7.20;;
71610;SDS011;59459;51.172;6.682;2023-01-24T08:54:44;18.00;;;7.27;;
71610;SDS011;59459;51.172;6.682;2023-01-24T08:57:10;16.67;;;7.50;;
71610;SDS011;59459;51.172;6.682;2023-01-24T08:59:35;17.67;;;7.63;;
71610;SDS011;59459;51.172;6.682;2023-01-24T09:02:00;17.40;;;7.27;;
71610;SDS011;59459;51.172;6.682;2023-01-24T09:04:25;17.17;;;7.43;;
71610;SDS011;59459;51.172;6.682;2023-01-24T09:06:53;15.73;;;7.47;;
71610;SDS011;59459;51.172;6.682;2023-01-24T09:09:18;16.27;;;6.93;;
71610;SDS011;59459;51.172;6.682;2023-01-24T09:11:44;19.50;;;7.60;;
71610;SDS011;59459;51.172;6.682;2023-01-24T09:14:09;17.87;;;8.00;;
71610;SDS011;59459;51.172;6.682;2023-01-24T09:16:34;17.20;;;7.83;;
71610;SDS011;59459;51.172;6.682;2023-01-24T09:18:59;17.00;;;7.37;;
71610;SDS011;59459;51.172;6.682;2023-01-24T09:21:25;15.47;;;7.33;;
71610;SDS011;59459;51.172;6.682;2023-01-24T09:23:52;17.90;;;8.03;;
71610;SDS011;59459;51.172;6.682;2023-01-24T09:26:17;18.03;;;7.60;;
71610;SDS011;59459;51.172;6.682;2023-01-24T09:28:42;16.90;;;7.13;;
71610;SDS011;59459;51.172;6.682;2023-01-24T09:31:08;18.00;;;7.73;;
71610;SDS011;59459;51.172;6.682;2023-01-24T09:33:33;18.52;;;7.13;;
71610;SDS011;59459;51.172;6.682;2023-01-24T09:36:00;20.87;;;9.20;;
71610;SDS011;59459;51.172;6.682;2023-01-24T09:38:26;18.17;;;8.20;;
71610;SDS011;59459;51.172;6.682;2023-01-24T09:45:49;17.10;;;7.80;;
71610;SDS011;59459;51.172;6.682;2023-01-24T09:48:16;20.20;;;8.52;;
71610;SDS011;59459;51.172;6.682;2023-01-24T09:51:25;18.40;;;7.80;;
71610;SDS011;59459;51.172;6.682;2023-01-24T09:53:35;17.48;;;7.82;;
71610;SDS011;59459;51.172;6.682;2023-01-24T09:56:02;20.92;;;8.40;;
71610;SDS011;59459;51.172;6.682;2023-01-24T09:58:30;20.60;;;8.10;;
71610;SDS011;59459;51.172;6.682;2023-01-24T10:01:04;19.60;;;8.27;;
71610;SDS011;59459;51.172;6.682;2023-01-24T10:03:32;18.15;;;7.43;;
71610;SDS011;59459;51.172;6.682;2023-01-24T10:05:58;17.08;;;7.28;;
71610;SDS011;59459;51.172;6.682;2023-01-24T10:08:27;17.20;;;7.50;;
71610;SDS011;59459;51.172;6.682;2023-01-24T10:10:59;18.17;;;8.55;;
71610;SDS011;59459;51.172;6.682;2023-01-24T10:16:10;17.23;;;7.75;;
71610;SDS011;59459;51.172;6.682;2023-01-24T10:21:21;20.05;;;8.60;;
71610;SDS011;59459;51.172;6.682;2023-01-24T10:23:51;19.85;;;8.63;;
71610;SDS011;59459;51.172;6.682;2023-01-24T10:26:18;17.17;;;7.67;;
71610;SDS011;59459;51.172;6.682;2023-01-24T10:28:49;18.67;;;8.35;;
71610;SDS011;59459;51.172;6.682;2023-01-24T10:31:16;20.10;;;8.82;;
71610;SDS011;59459;51.172;6.682;2023-01-24T10:33:47;20.27;;;7.88;;
71610;SDS011;59459;51.172;6.682;2023-01-24T10:36:30;16.52;;;8.07;;
71610;SDS011;59459;51.172;6.682;2023-01-24T10:38:58;21.47;;;8.10;;
71610;SDS011;59459;51.172;6.682;2023-01-24T10:41:24;18.10;;;7.85;;
71610;SDS011;59459;51.172;6.682;2023-01-24T10:43:54;19.17;;;8.60;;
71610;SDS011;59459;51.172;6.682;2023-01-24T10:46:33;18.92;;;8.90;;
71610;SDS011;59459;51.172;6.682;2023-01-24T10:49:03;21.92;;;8.48;;
71610;SDS011;59459;51.172;6.682;2023-01-24T10:51:31;18.38;;;7.93;;
71610;SDS011;59459;51.172;6.682;2023-01-24T10:54:00;20.37;;;8.13;;
71610;SDS011;59459;51.172;6.682;2023-01-24T10:56:26;18.27;;;8.02;;
71610;SDS011;59459;51.172;6.682;2023-01-24T10:58:58;21.23;;;8.47;;
71610;SDS011;59459;51.172;6.682;2023-01-24T11:01:36;17.50;;;7.47;;
71610;SDS011;59459;51.172;6.682;2023-01-24T11:04:20;17.58;;;8.45;;
71610;SDS011;59459;51.172;6.682;2023-01-24T11:06:47;18.65;;;9.07;;
71610;SDS011;59459;51.172;6.682;2023-01-24T11:09:14;19.52;;;9.32;;
71610;SDS011;59459;51.172;6.682;2023-01-24T11:11:41;19.85;;;8.60;;
71610;SDS011;59459;51.172;6.682;2023-01-24T11:14:08;19.87;;;7.97;;
71610;SDS011;59459;51.172;6.682;2023-01-24T11:16:47;19.60;;;8.38;;
71610;SDS011;59459;51.172;6.682;2023-01-24T11:19:24;20.42;;;8.57;;
71610;SDS011;59459;51.172;6.682;2023-01-24T11:21:52;20.63;;;8.07;;
71610;SDS011;59459;51.172;6.682;2023-01-24T11:24:17;18.65;;;7.97;;
71610;SDS011;59459;51.172;6.682;2023-01-24T11:29:28;17.75;;;8.05;;
71610;SDS011;59459;51.172;6.682;2023-01-24T11:39:11;17.47;;;8.37;;
71610;SDS011;59459;51.172;6.682;2023-01-24T11:41:42;19.60;;;8.32;;
71610;SDS011;59459;51.172;6.682;2023-01-24T11:44:23;17.40;;;7.53;;
71610;SDS011;59459;51.172;6.682;2023-01-24T11:46:59;16.92;;;7.90;;
71610;SDS011;59459;51.172;6.682;2023-01-24T11:55:13;19.88;;;8.20;;
71610;SDS011;59459;51.172;6.682;2023-01-24T11:57:50;18.03;;;7.50;;
71610;SDS011;59459;51.172;6.682;2023-01-24T12:13:01;18.53;;;7.77;;
71610;SDS011;59459;51.172;6.682;2023-01-24T12:15:53;18.73;;;7.50;;
71610;SDS011;59459;51.172;6.682;2023-01-24T12:23:18;18.73;;;8.13;;
71610;SDS011;59459;51.172;6.682;2023-01-24T12:25:45;18.48;;;8.43;;
71610;SDS011;59459;51.172;6.682;2023-01-24T12:28:14;17.35;;;7.93;;
71610;SDS011;59459;51.172;6.682;2023-01-24T12:30:47;17.33;;;8.30;;
71610;SDS011;59459;51.172;6.682;2023-01-24T12:33:31;16.97;;;7.47;;
71610;SDS011;59459;51.172;6.682;2023-01-24T12:35:59;25.35;;;8.48;;
71610;SDS011;59459;51.172;6.682;2023-01-24T12:38:26;16.40;;;7.57;;
71610;SDS011;59459;51.172;6.682;2023-01-24T12:50:53;17.50;;;8.47;;
71610;SDS011;59459;51.172;6.682;2023-01-24T12:53:23;18.30;;;8.32;;
71610;SDS011;59459;51.172;6.682;2023-01-24T12:58:23;19.33;;;8.63;;
71610;SDS011;59459;51.172;6.682;2023-01-24T13:12:58;18.47;;;8.20;;
71610;SDS011;59459;51.172;6.682;2023-01-24T13:15:26;17.13;;;7.47;;
71610;SDS011;59459;51.172;6.682;2023-01-24T13:17:56;18.10;;;8.65;;
71610;SDS011;59459;51.172;6.682;2023-01-24T13:28:30;17.48;;;7.60;;
71610;SDS011;59459;51.172;6.682;2023-01-24T13:33:37;18.40;;;8.45;;
71610;SDS011;59459;51.172;6.682;2023-01-24T13:36:05;19.77;;;7.87;;
71610;SDS011;59459;51.172;6.682;2023-01-24T13:38:34;17.13;;;7.53;;
71610;SDS011;59459;51.172;6.682;2023-01-24T13:41:05;20.92;;;10.00;;
71610;SDS011;59459;51.172;6.682;2023-01-24T13:46:11;20.33;;;9.52;;
71610;SDS011;59459;51.172;6.682;2023-01-24T13:54:04;16.85;;;8.02;;
71610;SDS011;59459;51.172;6.682;2023-01-24T13:56:30;19.98;;;8.20;;
71610;SDS011;59459;51.172;6.682;2023-01-24T13:58:55;22.30;;;9.13;;
71610;SDS011;59459;51.172;6.682;2023-01-24T14:01:20;17.50;;;8.20;;
71610;SDS011;59459;51.172;6.682;2023-01-24T14:03:57;16.20;;;7.50;;
71610;SDS011;59459;51.172;6.682;2023-01-24T14:06:23;17.63;;;8.27;;
71610;SDS011;59459;51.172;6.682;2023-01-24T14:09:00;18.58;;;8.95;;
71610;SDS011;59459;51.172;6.682;2023-01-24T14:11:34;20.10;;;9.07;;
71610;SDS011;59459;51.172;6.682;2023-01-24T14:14:25;18.17;;;8.25;;
71610;SDS011;59459;51.172;6.682;2023-01-24T14:19:20;20.60;;;8.73;;
71610;SDS011;59459;51.172;6.682;2023-01-24T14:24:35;18.73;;;8.25;;
71610;SDS011;59459;51.172;6.682;2023-01-24T14:29:38;20.35;;;9.25;;
71610;SDS011;59459;51.172;6.682;2023-01-24T14:32:06;18.05;;;8.40;;
71610;SDS011;59459;51.172;6.682;2023-01-24T14:34:40;22.80;;;9.35;;
71610;SDS011;59459;51.172;6.682;2023-01-24T14:37:08;20.08;;;9.02;;
71610;SDS011;59459;51.172;6.682;2023-01-24T14:39:34;16.60;;;7.70;;
71610;SDS011;59459;51.172;6.682;2023-01-24T14:42:00;17.50;;;8.50;;
71610;SDS011;59459;51.172;6.682;2023-01-24T14:44:30;19.67;;;8.88;;
71610;SDS011;59459;51.172;6.682;2023-01-24T14:51:55;22.42;;;8.70;;
71610;SDS011;59459;51.172;6.682;2023-01-24T14:54:22;19.17;;;8.70;;
71610;SDS011;59459;51.172;6.682;2023-01-24T14:56:47;18.93;;;9.20;;
71610;SDS011;59459;51.172;6.682;2023-01-24T14:59:13;19.80;;;8.43;;
71610;SDS011;59459;51.172;6.682;2023-01-24T15:01:39;19.70;;;8.95;;
71610;SDS011;59459;51.172;6.682;2023-01-24T15:04:04;18.15;;;8.73;;
71610;SDS011;59459;51.172;6.682;2023-01-24T15:06:30;22.47;;;9.27;;
71610;SDS011;59459;51.172;6.682;2023-01-24T15:08:58;17.05;;;7.95;;
71610;SDS011;59459;51.172;6.682;2023-01-24T15:11:28;18.48;;;9.40;;
71610;SDS011;59459;51.172;6.682;2023-01-24T15:14:17;18.48;;;8.30;;
71610;SDS011;59459;51.172;6.682;2023-01-24T15:16:46;19.07;;;9.23;;
71610;SDS011;59459;51.172;6.682;2023-01-24T15:19:14;18.23;;;8.93;;
71610;SDS011;59459;51.172;6.682;2023-01-24T15:21:45;17.23;;;8.60;;
71610;SDS011;59459;51.172;6.682;2023-01-24T15:24:29;20.10;;;9.63;;
71610;SDS011;59459;51.172;6.682;2023-01-24T15:26:55;20.70;;;8.98;;
71610;SDS011;59459;51.172;6.682;2023-01-24T15:29:37;21.83;;;9.57;;
71610;SDS011;59459;51.172;6.682;2023-01-24T15:32:49;22.42;;;9.75;;
71610;SDS011;59459;51.172;6.682;2023-01-24T15:34:48;20.13;;;8.95;;
71610;SDS011;59459;51.172;6.682;2023-01-24T15:37:14;23.33;;;9.77;;
71610;SDS011;59459;51.172;6.682;2023-01-24T15:39:40;22.50;;;9.60;;
71610;SDS011;59459;51.172;6.682;2023-01-24T15:42:06;21.17;;;9.77;;
71610;SDS011;59459;51.172;6.682;2023-01-24T15:44:50;18.47;;;9.50;;
71610;SDS011;59459;51.172;6.682;2023-01-24T15:47:19;19.80;;;9.27;;
71610;SDS011;59459;51.172;6.682;2023-01-24T15:50:13;18.42;;;9.18;;
71610;SDS011;59459;51.172;6.682;2023-01-24T15:55:57;21.27;;;9.63;;
71610;SDS011;59459;51.172;6.682;2023-01-24T15:58:25;20.83;;;10.18;;
71610;SDS011;59459;51.172;6.682;2023-01-24T16:00:54;20.57;;;9.87;;
71610;SDS011;59459;51.172;6.682;2023-01-24T16:03:19;20.50;;;10.17;;
71610;SDS011;59459;51.172;6.682;2023-01-24T16:05:45;21.23;;;9.60;;
71610;SDS011;59459;51.172;6.682;2023-01-24T16:08:10;21.53;;;9.83;;
71610;SDS011;59459;51.172;6.682;2023-01-24T16:10:35;19.13;;;9.20;;
71610;SDS011;59459;51.172;6.682;2023-01-24T16:13:00;20.67;;;9.97;;
71610;SDS011;59459;51.172;6.682;2023-01-24T16:15:26;19.43;;;9.47;;
71610;SDS011;59459;51.172;6.682;2023-01-24T16:17:51;21.33;;;10.27;;
71610;SDS011;59459;51.172;6.682;2023-01-24T16:20:21;19.83;;;10.07;;
71610;SDS011;59459;51.172;6.682;2023-01-24T16:22:46;21.75;;;10.00;;
71610;SDS011;59459;51.172;6.682;2023-01-24T16:25:12;23.97;;;10.30;;
71610;SDS011;59459;51.172;6.682;2023-01-24T16:27:38;25.63;;;10.18;;
71610;SDS011;59459;51.172;6.682;2023-01-24T16:30:05;19.23;;;9.45;;
71610;SDS011;59459;51.172;6.682;2023-01-24T16:32:30;22.63;;;10.02;;
71610;SDS011;59459;51.172;6.682;2023-01-24T16:34:55;22.97;;;10.27;;